createdAt,value
2018-10-19T00:00:34.819Z,81.00
2018-10-19T00:03:07.062Z,82.00
2018-10-19T00:05:39.200Z,85.40
2018-10-19T00:08:11.343Z,84.20
2018-10-19T00:10:43.304Z,87.60
2018-10-19T00:13:15.420Z,89.40
2018-10-19T00:15:47.345Z,86.60
2018-10-19T00:18:19.177Z,86.00
2018-10-19T00:20:51.031Z,87.60
2018-10-19T00:23:23.094Z,82.80
2018-10-19T00:25:55.097Z,87.20
2018-10-19T00:28:27.304Z,89.60
2018-10-19T00:30:59.253Z,89.40
2018-10-19T00:33:31.397Z,77.00
2018-10-19T00:36:04.025Z,86.20
2018-10-19T00:38:36.176Z,87.00
2018-10-19T00:41:08.304Z,83.40
2018-10-19T00:43:41.087Z,87.00
2018-10-19T00:46:13.079Z,86.40
2018-10-19T00:48:45.141Z,88.20
2018-10-19T00:51:17.146Z,89.20
2018-10-19T00:53:49.374Z,86.00
2018-10-19T00:56:21.445Z,77.40
2018-10-19T00:58:53.745Z,86.20
2018-10-19T01:01:25.749Z,89.00
2018-10-19T01:03:57.913Z,85.00
2018-10-19T01:06:30.418Z,86.20
2018-10-19T01:09:02.712Z,81.80
2018-10-19T01:11:34.762Z,85.80
2018-10-19T01:14:07.107Z,81.60
2018-10-19T01:16:39.187Z,79.20
2018-10-19T01:19:11.242Z,78.60
2018-10-19T01:21:44.262Z,81.80
2018-10-19T01:24:16.383Z,85.40
2018-10-19T01:26:48.434Z,85.80
2018-10-19T01:29:20.473Z,84.00
2018-10-19T01:31:52.609Z,87.60
2018-10-19T01:34:24.765Z,86.00
2018-10-19T01:36:57.517Z,95.40
2018-10-19T01:39:29.531Z,91.40
2018-10-19T01:42:01.147Z,102.60
2018-10-19T01:44:34.075Z,124.20
2018-10-19T01:47:06.286Z,103.40
2018-10-19T01:49:38.488Z,101.80
2018-10-19T01:52:10.500Z,91.00
2018-10-19T01:54:42.641Z,88.00
2018-10-19T01:57:14.707Z,86.80
2018-10-19T01:59:46.862Z,82.80
2018-10-19T02:02:19.048Z,81.00
2018-10-19T02:04:50.943Z,79.80
2018-10-19T02:07:23.181Z,76.40
2018-10-19T02:09:55.509Z,78.60
2018-10-19T02:12:27.681Z,77.80
2018-10-19T02:14:59.787Z,80.40
2018-10-19T02:17:31.860Z,79.00
2018-10-19T02:20:04.115Z,82.40
2018-10-19T02:22:36.286Z,77.20
2018-10-19T02:25:08.447Z,79.20
2018-10-19T02:27:40.459Z,77.00
2018-10-19T02:30:12.754Z,82.20
2018-10-19T02:32:44.670Z,83.00
2018-10-19T02:35:16.890Z,80.80
2018-10-19T02:37:49.305Z,79.40
2018-10-19T02:40:21.402Z,80.40
2018-10-19T02:42:53.208Z,78.80
2018-10-19T02:45:26.547Z,84.60
2018-10-19T02:47:58.559Z,83.40
2018-10-19T02:50:30.456Z,97.00
2018-10-19T02:53:02.663Z,86.60
2018-10-19T02:55:34.493Z,80.80
2018-10-19T02:58:06.377Z,88.40
2018-10-19T03:00:38.504Z,88.60
2018-10-19T03:03:10.601Z,81.80
2018-10-19T03:05:43.050Z,86.00
2018-10-19T03:08:15.543Z,87.40
2018-10-19T03:10:47.594Z,91.60
2018-10-19T03:13:19.584Z,94.80
2018-10-19T03:15:51.678Z,97.20
2018-10-19T03:18:23.632Z,92.80
2018-10-19T03:20:55.868Z,88.00
2018-10-19T03:23:27.953Z,84.80
2018-10-19T03:26:00.145Z,87.00
2018-10-19T03:28:32.298Z,90.00
2018-10-19T03:31:04.850Z,92.80
2018-10-19T03:33:36.947Z,88.60
2018-10-19T03:36:09.028Z,101.80
2018-10-19T03:38:41.606Z,91.20
2018-10-19T03:41:13.591Z,98.40
2018-10-19T03:43:45.611Z,85.80
2018-10-19T03:46:18.784Z,102.00
2018-10-19T03:48:50.893Z,95.20
2018-10-19T03:51:22.994Z,97.80
2018-10-19T03:53:55.071Z,94.80
2018-10-19T03:56:27.087Z,94.60
2018-10-19T03:58:59.279Z,93.80
2018-10-19T04:01:31.292Z,101.40
2018-10-19T04:04:03.572Z,100.00
2018-10-19T04:06:35.905Z,93.00
2018-10-19T04:09:12.955Z,93.00
2018-10-19T04:11:45.035Z,102.40
2018-10-19T04:14:16.842Z,100.40
2018-10-19T04:16:48.970Z,101.20
2018-10-19T04:19:21.244Z,107.20
2018-10-19T04:21:53.193Z,103.20
2018-10-19T04:24:25.301Z,107.40
2018-10-19T04:26:57.738Z,101.00
2018-10-19T04:29:29.919Z,106.80
2018-10-19T04:32:01.972Z,117.80
2018-10-19T04:34:34.144Z,117.40
2018-10-19T04:37:07.337Z,115.20
2018-10-19T04:39:39.990Z,117.60
2018-10-19T04:42:12.789Z,110.00
2018-10-19T04:44:44.976Z,103.40
2018-10-19T04:47:17.474Z,115.00
2018-10-19T04:49:49.504Z,115.60
2018-10-19T05:06:42.437Z,106.40
2018-10-19T06:54:29.367Z,75.60
2018-10-19T06:57:01.791Z,78.20
2018-10-19T06:59:34.060Z,74.40
2018-10-19T07:02:06.453Z,75.80
2018-10-19T07:04:39.755Z,72.60
2018-10-19T07:07:12.825Z,79.00
2018-10-19T07:09:46.144Z,73.20
2018-10-19T07:12:18.681Z,73.20
2018-10-19T07:14:51.511Z,67.60
2018-10-19T07:17:24.297Z,64.60
2018-10-19T07:19:56.425Z,67.20
2018-10-19T07:22:28.326Z,64.00
2018-10-19T07:25:00.680Z,57.20
2018-10-19T07:27:32.622Z,67.60
2018-10-19T07:30:05.057Z,61.40
2018-10-19T07:32:37.106Z,63.40
2018-10-19T07:35:09.668Z,61.20
2018-10-19T07:41:38.384Z,58.00
2018-10-19T07:44:10.381Z,70.80
2018-10-19T07:46:42.611Z,63.80
2018-10-19T07:49:14.730Z,61.20
2018-10-19T07:51:46.804Z,53.40
2018-10-19T07:54:18.964Z,62.00
2018-10-19T07:56:51.827Z,59.40
2018-10-19T07:59:23.600Z,56.80
2018-10-19T08:01:55.849Z,57.40
2018-10-19T08:04:27.687Z,59.00
2018-10-19T08:06:59.869Z,55.60
2018-10-19T08:09:32.399Z,58.60
2018-10-19T08:12:04.619Z,58.40
2018-10-19T08:14:36.671Z,56.40
2018-10-19T08:17:08.914Z,54.40
2018-10-19T08:19:40.709Z,51.00
2018-10-19T08:22:12.837Z,52.80
2018-10-19T08:24:44.996Z,51.00
2018-10-19T08:27:17.295Z,55.80
2018-10-19T08:29:49.377Z,55.40
2018-10-19T08:32:21.268Z,51.80
2018-10-19T08:34:53.148Z,49.60
2018-10-19T08:37:25.560Z,52.20
2018-10-19T08:39:58.270Z,48.80
2018-10-19T08:42:30.251Z,51.80
2018-10-19T08:45:02.168Z,46.80
2018-10-19T08:47:34.032Z,50.80
2018-10-19T08:50:06.051Z,52.60
2018-10-19T08:52:38.185Z,50.60
2018-10-19T08:55:10.138Z,50.60
2018-10-19T08:57:43.171Z,53.20
2018-10-19T09:00:15.265Z,43.80
2018-10-19T09:02:47.418Z,46.20
2018-10-19T09:05:19.527Z,51.60
2018-10-19T09:07:51.682Z,45.40
2018-10-19T09:10:24.741Z,48.40
2018-10-19T09:12:57.289Z,47.00
2018-10-19T09:15:29.501Z,47.60
2018-10-19T09:18:01.437Z,46.60
2018-10-19T09:20:33.585Z,48.60
2018-10-19T09:23:06.000Z,45.80
2018-10-19T09:25:38.036Z,45.60
2018-10-19T09:28:10.001Z,46.80
2018-10-19T09:30:42.194Z,46.00
2018-10-19T09:33:14.431Z,46.80
2018-10-19T09:35:46.519Z,45.60
2018-10-19T09:38:18.745Z,45.00
2018-10-19T09:40:51.131Z,42.60
2018-10-19T09:43:23.636Z,47.20
2018-10-19T09:45:55.650Z,50.00
2018-10-19T09:48:27.733Z,47.20
2018-10-19T09:50:59.731Z,39.80
2018-10-19T09:53:31.629Z,40.60
2018-10-19T09:56:03.865Z,47.40
2018-10-19T09:58:35.860Z,44.60
2018-10-19T10:01:12.552Z,48.40
2018-10-19T10:03:44.723Z,44.20
2018-10-19T10:06:16.467Z,51.80
2018-10-19T10:08:48.663Z,47.40
2018-10-19T10:11:21.461Z,53.60
2018-10-19T10:13:53.581Z,52.20
2018-10-19T10:16:25.424Z,49.40
2018-10-19T10:18:57.353Z,50.40
2018-10-19T10:21:28.961Z,50.20
2018-10-19T10:24:01.244Z,49.40
2018-10-19T10:26:33.209Z,48.60
2018-10-19T10:29:05.483Z,54.00
2018-10-19T10:31:37.633Z,55.40
2018-10-19T10:34:09.557Z,55.40
2018-10-19T10:36:41.603Z,51.40
2018-10-19T10:39:15.074Z,55.00
2018-10-19T10:41:47.971Z,53.80
2018-10-19T10:44:20.139Z,52.20
2018-10-19T10:46:52.311Z,53.40
2018-10-19T10:49:24.287Z,56.60
2018-10-19T10:51:56.080Z,49.40
2018-10-19T10:54:28.188Z,55.40
2018-10-19T10:57:00.155Z,59.40
2018-10-19T10:59:32.455Z,52.60
2018-10-19T11:02:04.173Z,55.60
2018-10-19T11:04:36.272Z,55.00
2018-10-19T11:07:08.169Z,57.80
2018-10-19T11:09:40.433Z,56.20
2018-10-19T11:12:12.840Z,57.20
2018-10-19T11:14:44.798Z,61.60
2018-10-19T11:17:16.536Z,56.40
2018-10-19T11:19:48.628Z,59.40
2018-10-19T11:22:20.739Z,60.20
2018-10-19T11:24:52.939Z,61.40
2018-10-19T11:27:24.968Z,57.80
2018-10-19T11:29:57.056Z,61.40
2018-10-19T11:32:29.341Z,68.60
2018-10-19T11:35:01.456Z,71.40
2018-10-19T11:37:33.613Z,72.80
2018-10-19T11:40:30.976Z,74.80
2018-10-19T11:43:03.888Z,87.00
2018-10-19T11:45:36.854Z,82.40
2018-10-19T11:48:08.655Z,85.20
2018-10-19T11:50:40.847Z,93.00
2018-10-19T11:53:12.817Z,190.60
2018-10-19T11:55:45.014Z,138.00
2018-10-19T11:58:17.039Z,141.40
2018-10-19T12:00:48.975Z,156.20
2018-10-19T12:03:20.814Z,167.00
2018-10-19T12:05:52.758Z,134.40
2018-10-19T12:08:24.727Z,120.20
2018-10-19T12:10:56.729Z,110.00
2018-10-19T12:13:28.838Z,114.00
2018-10-19T12:16:01.154Z,109.20
2018-10-19T12:18:33.377Z,91.80
2018-10-19T12:21:05.669Z,100.40
2018-10-19T12:23:37.664Z,92.00
2018-10-19T12:26:09.388Z,90.60
2018-10-19T12:28:41.288Z,89.00
2018-10-19T12:31:13.507Z,92.60
2018-10-19T12:33:45.783Z,85.60
2018-10-19T12:36:17.634Z,90.60
2018-10-19T12:38:49.573Z,86.40
2018-10-19T12:41:21.652Z,94.80
2018-10-19T12:43:54.005Z,83.60
2018-10-19T12:46:38.432Z,87.40
2018-10-19T12:49:11.013Z,87.40
2018-10-19T12:51:42.971Z,78.20
2018-10-19T12:54:14.742Z,80.40
2018-10-19T12:56:46.711Z,74.20
2018-10-19T12:59:18.503Z,80.00
2018-10-19T13:01:50.628Z,80.20
2018-10-19T13:04:22.690Z,78.40
2018-10-19T13:06:55.370Z,79.20
2018-10-19T13:09:27.235Z,78.20
2018-10-19T13:11:59.329Z,78.00
2018-10-19T13:14:31.803Z,75.40
2018-10-19T13:17:03.778Z,77.20
2018-10-19T13:19:35.636Z,73.80
2018-10-19T13:22:07.794Z,75.40
2018-10-19T13:24:39.943Z,74.60
2018-10-19T13:27:12.151Z,81.60
2018-10-19T13:29:44.142Z,77.00
2018-10-19T13:32:16.284Z,76.40
2018-10-19T13:34:48.284Z,78.80
2018-10-19T13:37:20.251Z,82.80
2018-10-19T13:39:52.231Z,86.20
2018-10-19T13:42:24.245Z,82.40
2018-10-19T13:44:56.393Z,93.40
2018-10-19T13:47:28.612Z,86.20
2018-10-19T13:50:00.737Z,93.20
2018-10-19T13:52:33.521Z,82.20
2018-10-19T13:55:05.426Z,90.60
2018-10-19T13:57:37.534Z,91.80
2018-10-19T14:00:09.372Z,88.60
2018-10-19T14:02:41.296Z,81.80
2018-10-19T14:05:13.392Z,93.40
2018-10-19T14:07:46.584Z,88.80
2018-10-19T14:10:18.403Z,89.20
2018-10-19T14:12:50.708Z,88.20
2018-10-19T14:15:23.105Z,93.40
2018-10-19T14:17:55.023Z,89.00
2018-10-19T14:20:26.841Z,99.00
2018-10-19T14:22:59.003Z,96.40
2018-10-19T14:25:30.776Z,91.00
2018-10-19T14:28:02.828Z,95.60
2018-10-19T14:30:34.727Z,94.20
2018-10-19T14:33:06.810Z,95.40
2018-10-19T14:35:38.727Z,89.00
2018-10-19T14:38:10.873Z,91.00
2018-10-19T14:40:42.950Z,91.20
2018-10-19T14:43:16.050Z,88.20
2018-10-19T14:45:48.566Z,100.40
2018-10-19T14:48:20.597Z,92.20
2018-10-19T14:50:52.613Z,100.20
2018-10-19T14:53:24.577Z,90.20
2018-10-19T14:55:56.554Z,96.60
2018-10-19T14:58:28.782Z,90.60
2018-10-19T15:01:00.851Z,91.60
2018-10-19T15:03:33.108Z,98.40
2018-10-19T15:06:04.895Z,96.00
2018-10-19T15:08:38.210Z,85.80
2018-10-19T15:11:10.273Z,94.80
2018-10-19T15:13:42.480Z,88.80
2018-10-19T15:16:15.918Z,95.20
2018-10-19T15:18:48.331Z,97.20
2018-10-19T15:21:20.583Z,99.00
2018-10-19T15:23:52.857Z,106.20
2018-10-19T15:26:25.114Z,108.40
2018-10-19T15:28:56.949Z,97.80
2018-10-19T15:31:28.974Z,106.80
2018-10-19T15:34:00.930Z,108.80
2018-10-19T15:36:32.953Z,104.40
2018-10-19T15:39:06.036Z,100.00
2018-10-19T15:41:37.878Z,104.00
2018-10-19T15:44:09.999Z,108.00
2018-10-19T15:46:42.506Z,93.80
2018-10-19T15:49:14.750Z,96.40
2018-10-19T15:51:46.671Z,96.20
2018-10-19T15:54:18.614Z,89.40
2018-10-19T15:56:50.782Z,100.20
2018-10-19T15:59:23.276Z,91.80
2018-10-19T16:01:55.239Z,96.60
2018-10-19T16:04:27.333Z,88.40
2018-10-19T16:06:59.120Z,98.40
2018-10-19T16:09:32.021Z,94.80
2018-10-19T16:12:04.208Z,102.00
2018-10-19T16:14:36.172Z,96.80
2018-10-19T16:17:08.614Z,98.80
2018-10-19T16:19:40.834Z,107.20
2018-10-19T16:22:12.822Z,98.20
2018-10-19T16:24:44.682Z,97.60
2018-10-19T16:27:17.020Z,107.00
2018-10-19T16:29:49.099Z,96.60
2018-10-19T16:32:21.282Z,91.20
2018-10-19T16:34:53.315Z,96.20
2018-10-19T16:37:25.654Z,94.60
2018-10-19T16:39:57.989Z,91.00
2018-10-19T16:42:30.154Z,98.40
2018-10-19T16:45:02.218Z,96.40
2018-10-19T16:47:35.032Z,97.40
2018-10-19T16:50:07.374Z,102.80
2018-10-19T16:54:03.917Z,108.60
2018-10-19T16:56:36.024Z,101.20
2018-10-19T16:59:07.994Z,102.60
2018-10-19T17:01:40.155Z,103.00
2018-10-19T17:04:12.761Z,118.60
2018-10-19T17:06:45.500Z,127.80
2018-10-19T17:09:17.687Z,114.20
2018-10-19T17:11:50.006Z,120.80
2018-10-19T17:14:21.896Z,112.40
2018-10-19T17:16:53.957Z,113.60
2018-10-19T17:19:27.930Z,115.80
2018-10-19T17:22:00.214Z,96.80
2018-10-19T17:24:31.781Z,103.40
2018-10-19T17:27:03.847Z,112.40
2018-10-19T17:29:35.865Z,123.80
2018-10-19T17:32:07.989Z,121.40
2018-10-19T17:34:39.643Z,111.60
2018-10-19T17:39:31.542Z,97.40
2018-10-19T17:42:03.454Z,110.60
2018-10-19T17:44:35.459Z,115.00
2018-10-19T17:47:07.712Z,105.60
2018-10-19T17:49:40.349Z,113.40
2018-10-19T17:52:12.021Z,117.60
2018-10-19T17:54:43.916Z,104.40
2018-10-19T17:57:16.065Z,120.40
2018-10-19T17:59:48.025Z,111.60
2018-10-19T18:02:19.890Z,120.20
2018-10-19T18:04:51.831Z,123.00
2018-10-19T18:07:23.882Z,126.20
2018-10-19T18:09:55.961Z,112.20
2018-10-19T18:12:28.127Z,115.80
2018-10-19T18:15:00.254Z,116.60
2018-10-19T18:17:32.014Z,116.20
2018-10-19T18:20:04.602Z,123.60
2018-10-19T18:22:36.813Z,120.40
2018-10-19T18:25:09.153Z,115.40
2018-10-19T18:27:41.022Z,119.00
2018-10-19T18:30:14.054Z,110.20
2018-10-19T18:32:46.462Z,130.60
2018-10-19T18:35:18.448Z,112.80
2018-10-19T18:37:50.473Z,119.20
2018-10-19T18:40:22.254Z,115.40
2018-10-19T18:42:54.105Z,108.20
2018-10-19T18:45:26.079Z,114.20
2018-10-19T18:47:58.143Z,109.80
2018-10-19T18:50:30.711Z,117.80
2018-10-19T18:53:02.801Z,113.60
2018-10-19T18:55:35.148Z,116.00
2018-10-19T18:58:07.003Z,121.60
2018-10-19T19:00:38.874Z,117.00
2018-10-19T19:03:11.207Z,115.40
2018-10-19T19:05:43.458Z,107.00
2018-10-19T19:08:15.637Z,119.80
2018-10-19T19:10:47.694Z,116.60
2018-10-19T19:13:24.326Z,105.40
2018-10-19T19:15:56.532Z,122.00
2018-10-19T19:18:28.193Z,127.00
2018-10-19T19:21:00.965Z,123.60
2018-10-19T19:23:37.280Z,123.80
2018-10-19T19:26:14.670Z,123.60
2018-10-19T19:28:46.811Z,124.80
2018-10-19T19:31:18.901Z,121.80
2018-10-19T19:33:55.422Z,122.20
2018-10-19T19:36:27.140Z,124.80
2018-10-19T19:38:59.096Z,115.20
2018-10-19T19:41:36.001Z,107.20
2018-10-19T19:44:07.869Z,123.80
2018-10-19T19:46:39.726Z,128.80
2018-10-19T19:49:16.332Z,114.60
2018-10-19T19:51:49.088Z,124.60
2018-10-19T19:54:21.129Z,120.80
2018-10-19T19:56:53.144Z,124.20
2018-10-19T19:59:25.060Z,125.00
2018-10-19T20:01:57.305Z,134.40
2018-10-19T20:04:29.651Z,134.00
2018-10-19T20:07:01.947Z,132.60
2018-10-19T20:09:34.776Z,131.00
2018-10-19T20:12:07.264Z,137.00
2018-10-19T20:14:39.501Z,131.80
2018-10-19T20:17:11.814Z,131.00
2018-10-19T20:19:43.839Z,136.20
2018-10-19T20:22:16.332Z,139.60
2018-10-19T20:24:48.342Z,133.00
2018-10-19T20:27:20.384Z,129.00
2018-10-19T20:29:52.493Z,134.00
2018-10-19T20:32:24.473Z,121.40
2018-10-19T20:34:56.705Z,128.80
2018-10-19T20:37:28.957Z,128.80
2018-10-19T20:40:01.063Z,142.80
2018-10-19T20:42:33.051Z,139.00
2018-10-19T20:45:05.369Z,139.20
2018-10-19T20:47:37.457Z,141.80
2018-10-19T20:50:09.793Z,142.80
2018-10-19T20:52:42.539Z,146.00
2018-10-19T20:55:15.635Z,156.60
2018-10-19T20:57:47.692Z,150.20
2018-10-19T21:00:19.758Z,145.00
2018-10-19T21:02:51.664Z,134.60
2018-10-19T21:05:23.432Z,151.80
2018-10-19T21:07:55.615Z,154.00
2018-10-19T21:10:28.061Z,148.00
2018-10-19T21:13:00.265Z,154.20
2018-10-19T21:15:32.236Z,156.80
2018-10-19T21:18:04.376Z,162.40
2018-10-19T21:20:36.396Z,153.60
2018-10-19T21:23:08.748Z,164.00
2018-10-19T21:25:40.752Z,151.20
2018-10-19T21:28:13.088Z,148.40
2018-10-19T21:30:45.166Z,165.60
2018-10-19T21:33:17.402Z,169.00
2018-10-19T21:35:49.120Z,149.40
2018-10-19T21:38:21.115Z,160.40
2018-10-19T21:40:52.967Z,167.80
2018-10-19T21:43:25.109Z,155.80
2018-10-19T21:45:56.906Z,169.20
2018-10-19T21:48:28.981Z,159.80
2018-10-19T21:51:00.982Z,160.80
2018-10-19T21:53:33.460Z,170.60
2018-10-19T21:56:05.485Z,163.00
2018-10-19T21:58:37.773Z,159.40
2018-10-19T22:01:09.843Z,172.20
2018-10-19T22:03:41.978Z,164.20
2018-10-19T22:06:13.966Z,167.00
2018-10-19T22:08:45.913Z,159.40
2018-10-19T22:11:18.353Z,164.00
2018-10-19T22:13:50.558Z,172.20
2018-10-19T22:16:22.853Z,156.40
2018-10-19T22:18:54.999Z,178.00
2018-10-19T22:21:27.305Z,175.80
2018-10-19T22:24:00.038Z,183.80
2018-10-19T22:26:32.219Z,168.00
2018-10-19T22:29:04.340Z,173.80
2018-10-19T22:31:36.507Z,173.00
2018-10-19T22:34:08.442Z,172.60
2018-10-19T22:36:40.421Z,163.00
2018-10-19T22:39:12.712Z,152.80
2018-10-19T22:41:44.762Z,183.60
2018-10-19T22:44:18.095Z,169.00
2018-10-19T22:46:50.196Z,176.80
2018-10-19T22:49:22.138Z,169.20
2018-10-19T22:51:54.254Z,173.80
2018-10-19T22:54:26.764Z,166.20
2018-10-19T22:56:58.805Z,182.80
2018-10-19T22:59:30.679Z,172.20
2018-10-19T23:02:02.552Z,173.60
2018-10-19T23:04:34.704Z,175.80
2018-10-19T23:07:07.173Z,178.60
2018-10-19T23:09:39.468Z,175.00
2018-10-19T23:12:11.741Z,171.20
2018-10-19T23:14:44.386Z,188.00
2018-10-19T23:17:16.614Z,181.60
2018-10-19T23:19:48.723Z,156.40
2018-10-19T23:22:20.802Z,173.20
2018-10-19T23:24:53.322Z,177.20
2018-10-19T23:27:25.286Z,184.40
2018-10-19T23:29:57.451Z,181.20
2018-10-19T23:32:29.152Z,181.40
2018-10-19T23:35:01.514Z,191.40
2018-10-19T23:37:33.637Z,187.60
2018-10-19T23:40:05.985Z,191.80
2018-10-19T23:42:38.104Z,195.60
2018-10-19T23:45:10.591Z,185.80
2018-10-19T23:47:42.578Z,199.40
2018-10-19T23:50:13.246Z,200.80
2018-10-19T23:52:45.203Z,194.20
2018-10-19T23:55:17.678Z,196.80
2018-10-19T23:57:49.707Z,206.40
